sensor_id;sensor_type;location;lat;lon;timestamp;P1;durP1;ratioP1;P2;durP2;ratioP2
65665;SDS011;52365;47.464;18.976;2022-10-16T00:00:07;10.77;;;5.32;;
65665;SDS011;52365;47.464;18.976;2022-10-16T00:00:44;10.48;;;5.50;;
65665;SDS011;52365;47.464;18.976;2022-10-16T00:01:21;9.77;;;5.85;;
65665;SDS011;52365;47.464;18.976;2022-10-16T00:01:59;9.60;;;5.62;;
65665;SDS011;52365;47.464;18.976;2022-10-16T00:02:35;9.02;;;5.43;;
65665;SDS011;52365;47.464;18.976;2022-10-16T00:03:11;7.22;;;5.25;;
65665;SDS011;52365;47.464;18.976;2022-10-16T00:03:48;8.75;;;5.28;;
65665;SDS011;52365;47.464;18.976;2022-10-16T00:04:24;8.98;;;5.68;;
65665;SDS011;52365;47.464;18.976;2022-10-16T00:05:00;9.73;;;5.47;;
65665;SDS011;52365;47.464;18.976;2022-10-16T00:05:40;8.43;;;5.85;;
65665;SDS011;52365;47.464;18.976;2022-10-16T00:06:19;9.85;;;5.55;;
65665;SDS011;52365;47.464;18.976;2022-10-16T00:06:56;9.98;;;6.00;;
65665;SDS011;52365;47.464;18.976;2022-10-16T00:07:32;12.65;;;5.57;;
65665;SDS011;52365;47.464;18.976;2022-10-16T00:08:09;10.23;;;5.50;;
65665;SDS011;52365;47.464;18.976;2022-10-16T00:08:46;10.70;;;5.50;;
65665;SDS011;52365;47.464;18.976;2022-10-16T00:09:23;8.50;;;5.30;;
65665;SDS011;52365;47.464;18.976;2022-10-16T00:09:59;9.93;;;5.55;;
65665;SDS011;52365;47.464;18.976;2022-10-16T00:10:35;8.27;;;5.07;;
65665;SDS011;52365;47.464;18.976;2022-10-16T00:11:15;9.75;;;5.15;;
65665;SDS011;52365;47.464;18.976;2022-10-16T00:11:56;10.32;;;5.68;;
65665;SDS011;52365;47.464;18.976;2022-10-16T00:12:32;8.57;;;5.60;;
65665;SDS011;52365;47.464;18.976;2022-10-16T00:13:08;10.20;;;5.43;;
65665;SDS011;52365;47.464;18.976;2022-10-16T00:13:45;11.15;;;5.68;;
65665;SDS011;52365;47.464;18.976;2022-10-16T00:14:22;9.23;;;5.55;;
65665;SDS011;52365;47.464;18.976;2022-10-16T00:14:58;8.23;;;5.45;;
65665;SDS011;52365;47.464;18.976;2022-10-16T00:15:35;8.02;;;5.87;;
65665;SDS011;52365;47.464;18.976;2022-10-16T00:16:12;9.68;;;5.45;;
65665;SDS011;52365;47.464;18.976;2022-10-16T00:16:49;8.00;;;5.40;;
65665;SDS011;52365;47.464;18.976;2022-10-16T00:17:25;9.10;;;5.62;;
65665;SDS011;52365;47.464;18.976;2022-10-16T00:18:02;8.35;;;5.28;;
65665;SDS011;52365;47.464;18.976;2022-10-16T00:18:40;9.63;;;5.72;;
65665;SDS011;52365;47.464;18.976;2022-10-16T00:19:17;9.65;;;5.65;;
65665;SDS011;52365;47.464;18.976;2022-10-16T00:19:53;10.90;;;5.47;;
65665;SDS011;52365;47.464;18.976;2022-10-16T00:20:29;10.35;;;5.32;;
65665;SDS011;52365;47.464;18.976;2022-10-16T00:21:08;10.10;;;5.40;;
65665;SDS011;52365;47.464;18.976;2022-10-16T00:21:49;8.75;;;5.80;;
65665;SDS011;52365;47.464;18.976;2022-10-16T00:22:25;11.27;;;5.60;;
65665;SDS011;52365;47.464;18.976;2022-10-16T00:23:01;9.77;;;5.70;;
65665;SDS011;52365;47.464;18.976;2022-10-16T00:23:38;10.68;;;5.50;;
65665;SDS011;52365;47.464;18.976;2022-10-16T00:24:15;10.98;;;5.50;;
65665;SDS011;52365;47.464;18.976;2022-10-16T00:24:51;10.27;;;5.78;;
65665;SDS011;52365;47.464;18.976;2022-10-16T00:25:27;9.10;;;5.50;;
65665;SDS011;52365;47.464;18.976;2022-10-16T00:26:07;9.48;;;5.43;;
65665;SDS011;52365;47.464;18.976;2022-10-16T00:26:45;12.00;;;5.40;;
65665;SDS011;52365;47.464;18.976;2022-10-16T00:27:25;9.30;;;5.62;;
65665;SDS011;52365;47.464;18.976;2022-10-16T00:28:01;9.15;;;5.45;;
65665;SDS011;52365;47.464;18.976;2022-10-16T00:28:37;10.75;;;5.60;;
65665;SDS011;52365;47.464;18.976;2022-10-16T00:29:14;8.55;;;5.45;;
65665;SDS011;52365;47.464;18.976;2022-10-16T00:29:50;79.90;;;61.83;;
65665;SDS011;52365;47.464;18.976;2022-10-16T00:30:27;27.35;;;19.50;;
65665;SDS011;52365;47.464;18.976;2022-10-16T00:31:05;24.25;;;18.10;;
65665;SDS011;52365;47.464;18.976;2022-10-16T00:31:43;17.95;;;12.82;;
65665;SDS011;52365;47.464;18.976;2022-10-16T00:32:19;13.13;;;7.72;;
65665;SDS011;52365;47.464;18.976;2022-10-16T00:32:55;11.20;;;6.28;;
65665;SDS011;52365;47.464;18.976;2022-10-16T00:33:32;10.48;;;5.90;;
65665;SDS011;52365;47.464;18.976;2022-10-16T00:34:09;8.63;;;5.50;;
65665;SDS011;52365;47.464;18.976;2022-10-16T00:34:45;10.63;;;5.55;;
65665;SDS011;52365;47.464;18.976;2022-10-16T00:35:22;12.80;;;5.40;;
65665;SDS011;52365;47.464;18.976;2022-10-16T00:35:58;7.85;;;5.05;;
65665;SDS011;52365;47.464;18.976;2022-10-16T00:36:35;10.13;;;5.70;;
65665;SDS011;52365;47.464;18.976;2022-10-16T00:37:11;8.93;;;5.43;;
65665;SDS011;52365;47.464;18.976;2022-10-16T00:37:47;9.25;;;5.60;;
65665;SDS011;52365;47.464;18.976;2022-10-16T00:38:23;8.80;;;5.37;;
65665;SDS011;52365;47.464;18.976;2022-10-16T00:39:00;10.80;;;5.70;;
65665;SDS011;52365;47.464;18.976;2022-10-16T00:39:36;9.57;;;5.50;;
65665;SDS011;52365;47.464;18.976;2022-10-16T00:40:12;9.77;;;5.32;;
65665;SDS011;52365;47.464;18.976;2022-10-16T00:40:48;9.90;;;5.80;;
65665;SDS011;52365;47.464;18.976;2022-10-16T00:41:25;10.25;;;5.50;;
65665;SDS011;52365;47.464;18.976;2022-10-16T00:42:01;10.02;;;5.70;;
65665;SDS011;52365;47.464;18.976;2022-10-16T00:42:38;8.55;;;5.30;;
65665;SDS011;52365;47.464;18.976;2022-10-16T00:43:32;11.68;;;5.82;;
65665;SDS011;52365;47.464;18.976;2022-10-16T00:45:18;12.10;;;6.10;;
65665;SDS011;52365;47.464;18.976;2022-10-16T00:45:54;8.57;;;5.40;;
65665;SDS011;52365;47.464;18.976;2022-10-16T00:46:40;11.90;;;5.37;;
65665;SDS011;52365;47.464;18.976;2022-10-16T00:47:28;9.05;;;5.70;;
65665;SDS011;52365;47.464;18.976;2022-10-16T00:48:10;12.25;;;5.12;;
65665;SDS011;52365;47.464;18.976;2022-10-16T00:48:52;8.82;;;5.55;;
65665;SDS011;52365;47.464;18.976;2022-10-16T00:49:37;10.65;;;5.45;;
65665;SDS011;52365;47.464;18.976;2022-10-16T00:51:09;9.60;;;5.70;;
65665;SDS011;52365;47.464;18.976;2022-10-16T00:51:50;9.60;;;5.32;;
65665;SDS011;52365;47.464;18.976;2022-10-16T00:52:29;9.55;;;5.60;;
65665;SDS011;52365;47.464;18.976;2022-10-16T00:53:05;8.18;;;5.45;;
65665;SDS011;52365;47.464;18.976;2022-10-16T00:53:43;9.88;;;5.57;;
65665;SDS011;52365;47.464;18.976;2022-10-16T00:54:27;9.02;;;5.22;;
65665;SDS011;52365;47.464;18.976;2022-10-16T00:55:06;9.32;;;5.32;;
65665;SDS011;52365;47.464;18.976;2022-10-16T00:55:44;8.15;;;5.30;;
65665;SDS011;52365;47.464;18.976;2022-10-16T00:56:21;11.48;;;5.70;;
65665;SDS011;52365;47.464;18.976;2022-10-16T00:56:58;10.55;;;5.50;;
65665;SDS011;52365;47.464;18.976;2022-10-16T00:57:37;9.02;;;5.30;;
65665;SDS011;52365;47.464;18.976;2022-10-16T00:58:14;10.30;;;5.57;;
65665;SDS011;52365;47.464;18.976;2022-10-16T00:58:50;8.02;;;5.37;;
65665;SDS011;52365;47.464;18.976;2022-10-16T00:59:28;7.78;;;5.70;;
65665;SDS011;52365;47.464;18.976;2022-10-16T01:00:08;7.70;;;5.40;;
65665;SDS011;52365;47.464;18.976;2022-10-16T01:00:46;9.15;;;5.50;;
65665;SDS011;52365;47.464;18.976;2022-10-16T01:01:22;9.43;;;5.60;;
65665;SDS011;52365;47.464;18.976;2022-10-16T01:01:58;11.65;;;5.87;;
65665;SDS011;52365;47.464;18.976;2022-10-16T01:02:35;10.77;;;5.53;;
65665;SDS011;52365;47.464;18.976;2022-10-16T01:03:26;9.82;;;5.50;;
65665;SDS011;52365;47.464;18.976;2022-10-16T01:04:05;7.57;;;5.28;;
65665;SDS011;52365;47.464;18.976;2022-10-16T01:04:42;9.10;;;5.30;;
65665;SDS011;52365;47.464;18.976;2022-10-16T01:05:22;9.77;;;5.60;;
65665;SDS011;52365;47.464;18.976;2022-10-16T01:09:14;7.65;;;5.35;;
65665;SDS011;52365;47.464;18.976;2022-10-16T01:12:09;9.40;;;5.22;;
65665;SDS011;52365;47.464;18.976;2022-10-16T01:12:58;9.20;;;5.25;;
65665;SDS011;52365;47.464;18.976;2022-10-16T01:13:38;8.65;;;5.43;;
65665;SDS011;52365;47.464;18.976;2022-10-16T01:15:07;11.40;;;5.82;;
65665;SDS011;52365;47.464;18.976;2022-10-16T01:15:28;9.07;;;5.65;;
65665;SDS011;52365;47.464;18.976;2022-10-16T01:16:17;10.02;;;5.85;;
65665;SDS011;52365;47.464;18.976;2022-10-16T01:17:06;8.90;;;5.70;;
65665;SDS011;52365;47.464;18.976;2022-10-16T01:18:52;11.05;;;5.53;;
65665;SDS011;52365;47.464;18.976;2022-10-16T01:20:14;9.13;;;5.60;;
65665;SDS011;52365;47.464;18.976;2022-10-16T01:20:59;9.48;;;5.70;;
65665;SDS011;52365;47.464;18.976;2022-10-16T01:21:40;7.47;;;5.72;;
65665;SDS011;52365;47.464;18.976;2022-10-16T01:22:19;10.38;;;5.70;;
65665;SDS011;52365;47.464;18.976;2022-10-16T01:24:59;8.95;;;5.87;;
65665;SDS011;52365;47.464;18.976;2022-10-16T01:25:46;9.07;;;5.53;;
65665;SDS011;52365;47.464;18.976;2022-10-16T01:27:33;9.05;;;5.62;;
65665;SDS011;52365;47.464;18.976;2022-10-16T01:28:14;10.45;;;5.68;;
65665;SDS011;52365;47.464;18.976;2022-10-16T01:29:07;11.60;;;5.80;;
65665;SDS011;52365;47.464;18.976;2022-10-16T01:30:04;9.60;;;5.68;;
65665;SDS011;52365;47.464;18.976;2022-10-16T01:30:46;8.77;;;5.62;;
65665;SDS011;52365;47.464;18.976;2022-10-16T01:31:26;9.65;;;5.70;;
65665;SDS011;52365;47.464;18.976;2022-10-16T01:32:08;8.55;;;5.60;;
65665;SDS011;52365;47.464;18.976;2022-10-16T01:33:49;11.43;;;5.87;;
65665;SDS011;52365;47.464;18.976;2022-10-16T01:34:38;8.88;;;5.50;;
65665;SDS011;52365;47.464;18.976;2022-10-16T01:35:52;9.77;;;6.03;;
65665;SDS011;52365;47.464;18.976;2022-10-16T01:36:41;8.68;;;5.50;;
65665;SDS011;52365;47.464;18.976;2022-10-16T01:38:53;8.30;;;5.93;;
65665;SDS011;52365;47.464;18.976;2022-10-16T01:39:35;10.88;;;6.43;;
65665;SDS011;52365;47.464;18.976;2022-10-16T01:40:16;9.80;;;6.30;;
65665;SDS011;52365;47.464;18.976;2022-10-16T01:40:57;12.02;;;6.97;;
65665;SDS011;52365;47.464;18.976;2022-10-16T01:41:38;11.45;;;6.70;;
65665;SDS011;52365;47.464;18.976;2022-10-16T01:42:21;11.43;;;6.70;;
65665;SDS011;52365;47.464;18.976;2022-10-16T01:43:03;10.80;;;6.53;;
65665;SDS011;52365;47.464;18.976;2022-10-16T01:43:50;9.70;;;6.28;;
65665;SDS011;52365;47.464;18.976;2022-10-16T01:44:35;11.12;;;6.45;;
65665;SDS011;52365;47.464;18.976;2022-10-16T01:45:14;11.15;;;6.75;;
65665;SDS011;52365;47.464;18.976;2022-10-16T01:45:53;12.77;;;6.90;;
65665;SDS011;52365;47.464;18.976;2022-10-16T01:46:30;11.00;;;6.47;;
65665;SDS011;52365;47.464;18.976;2022-10-16T01:47:08;10.20;;;6.30;;
65665;SDS011;52365;47.464;18.976;2022-10-16T01:47:47;9.52;;;6.22;;
65665;SDS011;52365;47.464;18.976;2022-10-16T01:48:26;10.52;;;6.55;;
65665;SDS011;52365;47.464;18.976;2022-10-16T01:49:02;9.13;;;6.12;;
65665;SDS011;52365;47.464;18.976;2022-10-16T01:49:39;10.48;;;6.45;;
65665;SDS011;52365;47.464;18.976;2022-10-16T01:50:17;10.38;;;6.03;;
65665;SDS011;52365;47.464;18.976;2022-10-16T01:51:06;10.20;;;6.50;;
65665;SDS011;52365;47.464;18.976;2022-10-16T01:51:46;12.65;;;6.53;;
65665;SDS011;52365;47.464;18.976;2022-10-16T01:52:26;11.52;;;6.22;;
65665;SDS011;52365;47.464;18.976;2022-10-16T01:53:05;9.90;;;6.20;;
65665;SDS011;52365;47.464;18.976;2022-10-16T01:53:52;11.23;;;6.37;;
65665;SDS011;52365;47.464;18.976;2022-10-16T01:54:30;10.77;;;6.65;;
65665;SDS011;52365;47.464;18.976;2022-10-16T01:55:09;11.25;;;6.35;;
65665;SDS011;52365;47.464;18.976;2022-10-16T01:55:48;11.55;;;6.57;;
65665;SDS011;52365;47.464;18.976;2022-10-16T01:56:24;10.60;;;6.30;;
65665;SDS011;52365;47.464;18.976;2022-10-16T01:57:02;10.30;;;6.05;;
65665;SDS011;52365;47.464;18.976;2022-10-16T01:57:42;10.50;;;6.35;;
65665;SDS011;52365;47.464;18.976;2022-10-16T01:58:22;8.77;;;6.00;;
65665;SDS011;52365;47.464;18.976;2022-10-16T01:59:02;8.98;;;6.10;;
65665;SDS011;52365;47.464;18.976;2022-10-16T01:59:42;11.52;;;5.70;;
65665;SDS011;52365;47.464;18.976;2022-10-16T02:00:22;7.80;;;5.40;;
65665;SDS011;52365;47.464;18.976;2022-10-16T02:00:59;10.73;;;6.30;;
65665;SDS011;52365;47.464;18.976;2022-10-16T02:01:38;10.13;;;6.07;;
65665;SDS011;52365;47.464;18.976;2022-10-16T02:02:18;9.02;;;6.12;;
65665;SDS011;52365;47.464;18.976;2022-10-16T02:02:55;10.18;;;6.10;;
65665;SDS011;52365;47.464;18.976;2022-10-16T02:03:34;9.13;;;6.30;;
65665;SDS011;52365;47.464;18.976;2022-10-16T02:04:24;7.25;;;5.65;;
65665;SDS011;52365;47.464;18.976;2022-10-16T02:05:55;9.27;;;5.80;;
65665;SDS011;52365;47.464;18.976;2022-10-16T02:06:33;9.77;;;6.03;;
65665;SDS011;52365;47.464;18.976;2022-10-16T02:07:10;9.68;;;6.37;;
65665;SDS011;52365;47.464;18.976;2022-10-16T02:07:47;8.30;;;5.80;;
65665;SDS011;52365;47.464;18.976;2022-10-16T02:08:24;9.13;;;6.20;;
65665;SDS011;52365;47.464;18.976;2022-10-16T02:09:03;8.70;;;5.90;;
65665;SDS011;52365;47.464;18.976;2022-10-16T02:09:39;10.73;;;6.05;;
65665;SDS011;52365;47.464;18.976;2022-10-16T02:10:16;9.50;;;5.93;;
65665;SDS011;52365;47.464;18.976;2022-10-16T02:10:53;8.35;;;5.65;;
65665;SDS011;52365;47.464;18.976;2022-10-16T02:11:31;9.50;;;5.62;;
65665;SDS011;52365;47.464;18.976;2022-10-16T02:12:29;11.30;;;5.78;;
65665;SDS011;52365;47.464;18.976;2022-10-16T02:13:08;8.55;;;5.95;;
65665;SDS011;52365;47.464;18.976;2022-10-16T02:13:48;8.65;;;6.05;;
65665;SDS011;52365;47.464;18.976;2022-10-16T02:14:29;8.77;;;5.80;;
65665;SDS011;52365;47.464;18.976;2022-10-16T02:15:06;8.70;;;6.03;;
65665;SDS011;52365;47.464;18.976;2022-10-16T02:15:42;11.38;;;6.10;;
65665;SDS011;52365;47.464;18.976;2022-10-16T02:16:18;8.18;;;5.95;;
65665;SDS011;52365;47.464;18.976;2022-10-16T02:16:54;9.02;;;6.20;;
65665;SDS011;52365;47.464;18.976;2022-10-16T02:17:31;9.65;;;5.70;;
65665;SDS011;52365;47.464;18.976;2022-10-16T02:18:08;7.93;;;5.93;;
65665;SDS011;52365;47.464;18.976;2022-10-16T02:18:46;9.88;;;6.15;;
65665;SDS011;52365;47.464;18.976;2022-10-16T02:19:22;10.48;;;5.87;;
65665;SDS011;52365;47.464;18.976;2022-10-16T02:19:58;9.32;;;6.00;;
65665;SDS011;52365;47.464;18.976;2022-10-16T02:22:41;9.25;;;6.40;;
65665;SDS011;52365;47.464;18.976;2022-10-16T02:23:30;12.27;;;7.78;;
65665;SDS011;52365;47.464;18.976;2022-10-16T02:24:35;11.20;;;7.85;;
65665;SDS011;52365;47.464;18.976;2022-10-16T02:25:23;15.30;;;7.80;;
65665;SDS011;52365;47.464;18.976;2022-10-16T02:26:00;13.55;;;9.40;;
65665;SDS011;52365;47.464;18.976;2022-10-16T02:26:52;12.02;;;7.53;;
65665;SDS011;52365;47.464;18.976;2022-10-16T02:27:56;16.20;;;10.35;;
65665;SDS011;52365;47.464;18.976;2022-10-16T02:28:46;65.25;;;33.53;;
65665;SDS011;52365;47.464;18.976;2022-10-16T02:29:26;142.07;;;70.03;;
65665;SDS011;52365;47.464;18.976;2022-10-16T02:30:38;99.25;;;49.20;;
65665;SDS011;52365;47.464;18.976;2022-10-16T02:31:11;184.73;;;89.65;;
65665;SDS011;52365;47.464;18.976;2022-10-16T02:31:51;248.57;;;117.13;;
65665;SDS011;52365;47.464;18.976;2022-10-16T02:32:33;198.52;;;90.78;;
65665;SDS011;52365;47.464;18.976;2022-10-16T02:33:12;152.77;;;71.22;;
65665;SDS011;52365;47.464;18.976;2022-10-16T02:33:50;117.20;;;52.90;;
65665;SDS011;52365;47.464;18.976;2022-10-16T02:34:28;103.03;;;47.22;;
65665;SDS011;52365;47.464;18.976;2022-10-16T02:35:07;91.75;;;44.05;;
65665;SDS011;52365;47.464;18.976;2022-10-16T02:35:45;135.77;;;63.92;;
65665;SDS011;52365;47.464;18.976;2022-10-16T02:36:24;116.25;;;53.67;;
65665;SDS011;52365;47.464;18.976;2022-10-16T02:37:01;130.80;;;61.03;;
65665;SDS011;52365;47.464;18.976;2022-10-16T02:37:39;157.60;;;74.25;;
65665;SDS011;52365;47.464;18.976;2022-10-16T02:38:17;153.93;;;75.62;;
65665;SDS011;52365;47.464;18.976;2022-10-16T02:38:55;200.07;;;90.07;;
65665;SDS011;52365;47.464;18.976;2022-10-16T02:39:32;301.77;;;125.72;;
65665;SDS011;52365;47.464;18.976;2022-10-16T02:40:09;270.73;;;111.70;;
65665;SDS011;52365;47.464;18.976;2022-10-16T02:40:46;274.77;;;115.80;;
65665;SDS011;52365;47.464;18.976;2022-10-16T02:41:22;277.13;;;116.07;;
65665;SDS011;52365;47.464;18.976;2022-10-16T02:41:59;303.83;;;125.72;;
65665;SDS011;52365;47.464;18.976;2022-10-16T02:42:36;310.52;;;125.05;;
65665;SDS011;52365;47.464;18.976;2022-10-16T02:43:15;292.40;;;122.18;;
65665;SDS011;52365;47.464;18.976;2022-10-16T02:43:52;279.83;;;115.45;;
65665;SDS011;52365;47.464;18.976;2022-10-16T02:44:28;219.93;;;87.28;;
65665;SDS011;52365;47.464;18.976;2022-10-16T02:45:04;183.98;;;73.12;;
65665;SDS011;52365;47.464;18.976;2022-10-16T02:45:42;204.32;;;84.35;;
65665;SDS011;52365;47.464;18.976;2022-10-16T02:46:18;206.00;;;83.22;;
65665;SDS011;52365;47.464;18.976;2022-10-16T02:46:54;224.73;;;96.35;;
65665;SDS011;52365;47.464;18.976;2022-10-16T02:47:30;249.52;;;103.75;;
65665;SDS011;52365;47.464;18.976;2022-10-16T02:48:06;230.18;;;100.85;;
65665;SDS011;52365;47.464;18.976;2022-10-16T02:48:42;206.98;;;92.30;;
65665;SDS011;52365;47.464;18.976;2022-10-16T02:49:19;176.85;;;81.63;;
65665;SDS011;52365;47.464;18.976;2022-10-16T02:49:55;167.20;;;79.33;;
65665;SDS011;52365;47.464;18.976;2022-10-16T02:50:31;114.10;;;51.65;;
65665;SDS011;52365;47.464;18.976;2022-10-16T02:51:07;101.72;;;49.15;;
65665;SDS011;52365;47.464;18.976;2022-10-16T02:51:43;110.05;;;52.92;;
65665;SDS011;52365;47.464;18.976;2022-10-16T02:52:19;211.48;;;96.87;;
65665;SDS011;52365;47.464;18.976;2022-10-16T02:52:55;241.27;;;110.88;;
65665;SDS011;52365;47.464;18.976;2022-10-16T02:53:31;243.90;;;110.20;;
65665;SDS011;52365;47.464;18.976;2022-10-16T02:54:07;241.10;;;108.78;;
65665;SDS011;52365;47.464;18.976;2022-10-16T02:54:43;246.48;;;105.05;;
65665;SDS011;52365;47.464;18.976;2022-10-16T02:55:19;247.50;;;105.00;;
65665;SDS011;52365;47.464;18.976;2022-10-16T02:55:55;242.65;;;104.28;;
65665;SDS011;52365;47.464;18.976;2022-10-16T02:56:31;221.70;;;101.90;;
65665;SDS011;52365;47.464;18.976;2022-10-16T02:57:07;217.35;;;103.20;;
65665;SDS011;52365;47.464;18.976;2022-10-16T02:57:43;211.62;;;106.60;;
65665;SDS011;52365;47.464;18.976;2022-10-16T02:58:19;216.25;;;100.97;;
65665;SDS011;52365;47.464;18.976;2022-10-16T02:58:55;193.80;;;101.97;;
65665;SDS011;52365;47.464;18.976;2022-10-16T02:59:31;183.15;;;98.35;;
65665;SDS011;52365;47.464;18.976;2022-10-16T03:00:08;175.62;;;91.72;;
65665;SDS011;52365;47.464;18.976;2022-10-16T03:00:47;172.02;;;84.72;;
65665;SDS011;52365;47.464;18.976;2022-10-16T03:01:23;107.45;;;58.08;;
65665;SDS011;52365;47.464;18.976;2022-10-16T03:01:59;123.32;;;64.35;;
65665;SDS011;52365;47.464;18.976;2022-10-16T03:02:35;123.05;;;64.07;;
65665;SDS011;52365;47.464;18.976;2022-10-16T03:03:11;125.45;;;66.72;;
65665;SDS011;52365;47.464;18.976;2022-10-16T03:03:47;79.75;;;46.88;;
65665;SDS011;52365;47.464;18.976;2022-10-16T03:04:23;68.10;;;40.47;;
65665;SDS011;52365;47.464;18.976;2022-10-16T03:04:59;89.07;;;50.92;;
65665;SDS011;52365;47.464;18.976;2022-10-16T03:05:35;79.40;;;46.75;;
65665;SDS011;52365;47.464;18.976;2022-10-16T03:06:11;80.57;;;46.28;;
65665;SDS011;52365;47.464;18.976;2022-10-16T03:06:47;53.58;;;31.87;;
65665;SDS011;52365;47.464;18.976;2022-10-16T03:07:23;49.08;;;30.37;;
65665;SDS011;52365;47.464;18.976;2022-10-16T03:07:59;29.95;;;17.98;;
65665;SDS011;52365;47.464;18.976;2022-10-16T03:08:39;22.20;;;13.27;;
65665;SDS011;52365;47.464;18.976;2022-10-16T03:09:15;16.25;;;10.65;;
65665;SDS011;52365;47.464;18.976;2022-10-16T03:09:51;13.90;;;8.73;;
65665;SDS011;52365;47.464;18.976;2022-10-16T03:10:27;14.07;;;8.40;;
65665;SDS011;52365;47.464;18.976;2022-10-16T03:11:03;12.68;;;7.32;;
65665;SDS011;52365;47.464;18.976;2022-10-16T03:11:39;11.90;;;7.40;;
65665;SDS011;52365;47.464;18.976;2022-10-16T03:12:15;12.13;;;7.95;;
65665;SDS011;52365;47.464;18.976;2022-10-16T03:12:51;20.35;;;14.50;;
65665;SDS011;52365;47.464;18.976;2022-10-16T03:13:27;19.52;;;13.80;;
65665;SDS011;52365;47.464;18.976;2022-10-16T03:14:03;21.73;;;14.25;;
65665;SDS011;52365;47.464;18.976;2022-10-16T03:14:39;20.08;;;13.13;;
65665;SDS011;52365;47.464;18.976;2022-10-16T03:15:16;16.48;;;12.02;;
65665;SDS011;52365;47.464;18.976;2022-10-16T03:15:52;21.40;;;14.60;;
65665;SDS011;52365;47.464;18.976;2022-10-16T03:16:28;12.50;;;9.32;;
65665;SDS011;52365;47.464;18.976;2022-10-16T03:17:04;15.63;;;8.90;;
65665;SDS011;52365;47.464;18.976;2022-10-16T03:17:40;12.55;;;8.05;;
65665;SDS011;52365;47.464;18.976;2022-10-16T03:18:16;13.62;;;9.30;;
65665;SDS011;52365;47.464;18.976;2022-10-16T03:18:52;14.63;;;8.55;;
65665;SDS011;52365;47.464;18.976;2022-10-16T03:19:28;12.45;;;7.85;;
65665;SDS011;52365;47.464;18.976;2022-10-16T03:20:04;11.65;;;8.30;;
65665;SDS011;52365;47.464;18.976;2022-10-16T03:20:42;10.60;;;7.72;;
65665;SDS011;52365;47.464;18.976;2022-10-16T03:21:18;10.88;;;7.82;;
65665;SDS011;52365;47.464;18.976;2022-10-16T03:21:54;12.27;;;8.55;;
65665;SDS011;52365;47.464;18.976;2022-10-16T03:22:30;12.65;;;8.30;;
65665;SDS011;52365;47.464;18.976;2022-10-16T03:23:06;11.00;;;7.40;;
65665;SDS011;52365;47.464;18.976;2022-10-16T03:23:43;11.43;;;7.20;;
65665;SDS011;52365;47.464;18.976;2022-10-16T03:24:19;10.38;;;6.95;;
65665;SDS011;52365;47.464;18.976;2022-10-16T03:24:55;9.70;;;6.60;;
65665;SDS011;52365;47.464;18.976;2022-10-16T03:25:31;9.30;;;6.43;;
65665;SDS011;52365;47.464;18.976;2022-10-16T03:26:07;8.95;;;6.35;;
65665;SDS011;52365;47.464;18.976;2022-10-16T03:26:44;9.43;;;6.45;;
65665;SDS011;52365;47.464;18.976;2022-10-16T03:27:20;8.65;;;6.87;;
65665;SDS011;52365;47.464;18.976;2022-10-16T03:27:56;8.82;;;6.90;;
65665;SDS011;52365;47.464;18.976;2022-10-16T03:28:32;10.75;;;7.22;;
65665;SDS011;52365;47.464;18.976;2022-10-16T03:29:08;10.18;;;6.95;;
65665;SDS011;52365;47.464;18.976;2022-10-16T03:29:44;9.88;;;7.07;;
65665;SDS011;52365;47.464;18.976;2022-10-16T03:30:20;10.50;;;7.50;;
65665;SDS011;52365;47.464;18.976;2022-10-16T03:30:56;10.05;;;7.18;;
65665;SDS011;52365;47.464;18.976;2022-10-16T03:31:32;10.13;;;7.25;;
65665;SDS011;52365;47.464;18.976;2022-10-16T03:32:08;9.85;;;7.07;;
65665;SDS011;52365;47.464;18.976;2022-10-16T03:32:44;10.15;;;7.37;;
65665;SDS011;52365;47.464;18.976;2022-10-16T03:33:21;12.52;;;7.62;;
65665;SDS011;52365;47.464;18.976;2022-10-16T03:33:57;10.95;;;7.20;;
65665;SDS011;52365;47.464;18.976;2022-10-16T03:34:33;10.15;;;6.78;;
65665;SDS011;52365;47.464;18.976;2022-10-16T03:35:09;8.73;;;6.80;;
65665;SDS011;52365;47.464;18.976;2022-10-16T03:35:50;9.75;;;6.87;;
65665;SDS011;52365;47.464;18.976;2022-10-16T03:36:28;9.38;;;6.95;;
65665;SDS011;52365;47.464;18.976;2022-10-16T03:37:04;12.25;;;6.85;;
65665;SDS011;52365;47.464;18.976;2022-10-16T03:37:40;8.70;;;6.35;;
65665;SDS011;52365;47.464;18.976;2022-10-16T03:38:16;10.60;;;6.40;;
65665;SDS011;52365;47.464;18.976;2022-10-16T03:38:52;7.80;;;6.00;;
65665;SDS011;52365;47.464;18.976;2022-10-16T03:39:28;9.63;;;6.22;;
65665;SDS011;52365;47.464;18.976;2022-10-16T03:40:04;9.02;;;6.55;;
65665;SDS011;52365;47.464;18.976;2022-10-16T03:40:41;9.48;;;6.10;;
65665;SDS011;52365;47.464;18.976;2022-10-16T03:41:17;11.45;;;6.30;;
65665;SDS011;52365;47.464;18.976;2022-10-16T03:41:53;10.77;;;6.25;;
65665;SDS011;52365;47.464;18.976;2022-10-16T03:42:29;7.95;;;6.25;;
65665;SDS011;52365;47.464;18.976;2022-10-16T03:43:08;8.52;;;6.05;;
65665;SDS011;52365;47.464;18.976;2022-10-16T03:43:44;10.05;;;6.22;;
65665;SDS011;52365;47.464;18.976;2022-10-16T03:44:20;8.90;;;6.25;;
65665;SDS011;52365;47.464;18.976;2022-10-16T03:44:57;10.60;;;6.60;;
65665;SDS011;52365;47.464;18.976;2022-10-16T03:45:33;10.10;;;6.45;;
65665;SDS011;52365;47.464;18.976;2022-10-16T03:46:09;8.20;;;5.85;;
65665;SDS011;52365;47.464;18.976;2022-10-16T03:46:45;10.32;;;6.40;;
65665;SDS011;52365;47.464;18.976;2022-10-16T03:47:21;9.63;;;6.47;;
65665;SDS011;52365;47.464;18.976;2022-10-16T03:47:58;9.27;;;6.20;;
65665;SDS011;52365;47.464;18.976;2022-10-16T03:48:34;9.75;;;6.50;;
65665;SDS011;52365;47.464;18.976;2022-10-16T03:49:10;10.00;;;6.28;;
65665;SDS011;52365;47.464;18.976;2022-10-16T03:49:47;9.82;;;6.93;;
65665;SDS011;52365;47.464;18.976;2022-10-16T03:50:24;8.38;;;6.20;;
65665;SDS011;52365;47.464;18.976;2022-10-16T03:51:00;9.35;;;6.40;;
65665;SDS011;52365;47.464;18.976;2022-10-16T03:51:36;8.95;;;6.25;;
65665;SDS011;52365;47.464;18.976;2022-10-16T03:52:12;9.50;;;6.53;;
65665;SDS011;52365;47.464;18.976;2022-10-16T03:52:48;12.32;;;6.85;;
65665;SDS011;52365;47.464;18.976;2022-10-16T03:53:24;9.40;;;6.40;;
65665;SDS011;52365;47.464;18.976;2022-10-16T03:54:00;9.30;;;6.30;;
65665;SDS011;52365;47.464;18.976;2022-10-16T03:54:36;9.80;;;6.57;;
65665;SDS011;52365;47.464;18.976;2022-10-16T03:55:12;10.98;;;6.45;;
65665;SDS011;52365;47.464;18.976;2022-10-16T03:55:49;8.35;;;6.18;;
65665;SDS011;52365;47.464;18.976;2022-10-16T03:56:25;9.50;;;6.30;;
65665;SDS011;52365;47.464;18.976;2022-10-16T03:57:01;10.27;;;6.20;;
65665;SDS011;52365;47.464;18.976;2022-10-16T03:57:37;10.07;;;6.10;;
65665;SDS011;52365;47.464;18.976;2022-10-16T03:58:13;11.27;;;6.28;;
65665;SDS011;52365;47.464;18.976;2022-10-16T03:58:49;9.98;;;6.15;;
65665;SDS011;52365;47.464;18.976;2022-10-16T03:59:25;9.48;;;6.82;;
65665;SDS011;52365;47.464;18.976;2022-10-16T04:00:02;10.30;;;6.28;;
65665;SDS011;52365;47.464;18.976;2022-10-16T04:00:44;8.18;;;5.90;;
65665;SDS011;52365;47.464;18.976;2022-10-16T04:01:22;8.75;;;6.20;;
65665;SDS011;52365;47.464;18.976;2022-10-16T04:01:58;10.20;;;6.30;;
65665;SDS011;52365;47.464;18.976;2022-10-16T04:02:35;10.45;;;6.60;;
65665;SDS011;52365;47.464;18.976;2022-10-16T04:03:11;9.20;;;6.07;;